Fédération internationale de Ski
Member Section
Print

OFFICIAL RESULTS

St. Moritz (SUI) 16.02.2017

FIS World Ski Championships - Ladies' Giant Slalom

Race codex : 5204
Valid for FIS Points : YES



Jury
TD FIS DRESCHL EDI AUT
Referee Atle Skaardal FIS
Assistant Referee Markus Mayr FIS
Chief of Race Wim Rossel SUI
Technical Data
Start Altitude 2385 m.
Finish Altitude 2030 m.
Vertical Drop 355 m.
Homologation Number 10226/10/11
Run 1
Course Setter M TATSCHL AUT
Number of Gates 50
Turning Gates 47
Start Time 00:00
Run 2
Course Setter M GAMPER CAN
Number of Gates 50
Turning Gates 47
Start Time 00:00
 
Show more info»

Competitors

Display filter form
Rank Bib FIS Code Name Year Nation Run 1 Run 2 Total Time Diff. FIS Points
 1  1  196928 WORLEY Tessa  1989  FRA   1:02.01  1:03.54  2:05.55     0.00
 2  4  6535237 SHIFFRIN Mikaela  1995  USA   1:02.73  1:03.16  2:05.89  +0.34  2.65
 3  3  298323 GOGGIA Sofia  1992  ITA   1:02.49  1:03.80  2:06.29  +0.74  5.78
 4  6  297601 BRIGNONE Federica  1990  ITA   1:03.11  1:03.36  2:06.47  +0.92  7.18
 5  13  56217 BRUNNER Stephanie  1994  AUT   1:03.35  1:03.50  2:06.85  +1.30  10.15
 6  10  296259 MOELGG Manuela  1983  ITA   1:03.43  1:03.45  2:06.88  +1.33  10.38
 7  7  565268 DREV Ana  1985  SLO   1:03.32  1:04.04  2:07.36  +1.81  14.13
 8  16  705423 VLHOVA Petra  1995  SVK   1:03.66  1:03.84  2:07.50  +1.95  15.22
 9  19  506399 HECTOR Sara  1992  SWE   1:03.68  1:03.83  2:07.51  +1.96  15.30
 10  8  425771 LOESETH Nina  1989  NOR   1:03.22  1:04.30  2:07.52  +1.97  15.38
 11  5  299276 BASSINO Marta  1996  ITA   1:03.50  1:04.03  2:07.53  +1.98  15.46
 12  9  55759 KIRCHGASSER Michaela  1985  AUT   1:03.89  1:03.70  2:07.59  +2.04  15.92
 13  25  516528 MEILLARD Melanie  1998  SUI   1:04.09  1:03.68  2:07.77  +2.22  17.33
 14  20  197319 BAUD MUGNIER Adeline  1992  FRA   1:03.88  1:04.02  2:07.90  +2.35  18.34
 14  15  516268 WILD Simone  1993  SUI   1:03.12  1:04.78  2:07.90  +2.35  18.34
 16  17  505679 HANSDOTTER Frida  1985  SWE   1:04.09  1:03.91  2:08.00  +2.45  19.12
 17  27  56032 SCHILD Bernadette  1990  AUT   1:03.53  1:04.73  2:08.26  +2.71  21.15
 18  11  425929 MOWINCKEL Ragnhild  1992  NOR   1:03.88  1:04.51  2:08.39  +2.84  22.17
 19  12  355050 WEIRATHER Tina  1989  LIE   1:03.79  1:04.66  2:08.45  +2.90  22.64
 20  14  105269 GAGNON Marie-Michele  1989  CAN   1:04.04  1:04.55  2:08.59  +3.04  23.73
 21  31  538284 MCJAMES Megan  1987  USA   1:04.59  1:04.11  2:08.70  +3.15  24.59
 22  22  55947 VEITH Anna  1989  AUT   1:04.26  1:04.45  2:08.71  +3.16  24.67
 23  30  426187 LYSDAHL Kristin   1996  NOR   1:03.64  1:05.36  2:09.00  +3.45  26.93
 24  26  505886 KLING Kajsa  1988  SWE   1:04.71  1:04.55  2:09.26  +3.71  28.96
 25  23  505760 PIETILAE-HOLMNER Maria  1986  SWE   1:04.58  1:04.71  2:09.29  +3.74  29.19
 26  41  206355 DUERR Lena  1991  GER   1:04.85  1:04.57  2:09.42  +3.87  30.21
 27  47  315187 IGNJATOVIC Nevena  1990  SRB   1:05.42  1:04.54  2:09.96  +4.41  34.42
 28  29  516562 RAST Camille  1999  SUI   1:05.43  1:04.67  2:10.10  +4.55  35.52
 29  48  155699 PAULATHOVA Katerina  1993  CZE   1:04.84  1:05.36  2:10.20  +4.65  36.30
 30  33  225525 TILLEY Alexandra  1993  GBR   1:05.16  1:05.42  2:10.58  +5.03  39.26
 31  37  425879 RIIS-JOHANNESSEN Kristina  1991  NOR   1:05.64  1:05.15  2:10.79  +5.24  40.90
 32  51  435334 GASIENICA-DANIEL Maryna  1994  POL   1:05.60  1:05.24  2:10.84  +5.29  41.29
 33  40  206487 WIESLER Maren  1993  GER   1:05.25  1:05.96  2:11.21  +5.66  44.18
 34  42  185430 HONKANEN Riikka  1998  FIN   1:05.63  1:05.97  2:11.60  +6.05  47.22
 35  32  307493 ANDO Asa  1996  JPN   1:06.14  1:06.39  2:12.53  +6.98  54.48
 36  46  405138 JELINKOVA Adriana  1995  NED   1:06.66  1:06.37  2:13.03  +7.48  58.39
 37  59  155763 LEDECKA Ester  1995  CZE   1:06.70  1:06.45  2:13.15  +7.60  59.32
 38  68  485749 PROKOPYEVA Aleksandra  1994  RUS   1:07.18  1:06.13  2:13.31  +7.76  60.57
 39  53  555018 GASUNA Lelde  1990  LAT   1:07.31  1:07.27  2:14.58  +9.03  70.49
 40  55  35156 BANCORA Salome  1993  ARG   1:07.56  1:07.18  2:14.74  +9.19  71.73
 41  54  536481 SCHLEPER Sarah  1979  MEX   1:08.27  1:07.01  2:15.28  +9.73  75.95
 42  66  385106 STIMAC Ida  2000  CRO   1:07.58  1:07.91  2:15.49  +9.94  77.59
 43  64  155586 KMOCHOVA Tereza  1990  CZE   1:08.12  1:07.66  2:15.78  +10.23  79.85
 44  67  385092 KOMSIC Andrea  1996  CRO   1:07.93  1:08.18  2:16.11  +10.56  82.43
 45  70  95112 ASENOVA Vera  1995  BUL   1:08.71  1:07.44  2:16.15  +10.60  82.74
 46  63  95050 KIRKOVA Maria  1986  BUL   1:08.50  1:07.76  2:16.26  +10.71  83.60
 47  74  255357 EINARSDOTTIR Freydis Halla  1994  ISL   1:07.98  1:08.40  2:16.38  +10.83  84.54
 47  65  385101 ZBASNIK Lana  1999  CRO   1:08.66  1:07.72  2:16.38  +10.83  84.54
 49  72  705460 JANCOVA Tereza  1999  SVK   1:08.66  1:08.26  2:16.92  +11.37  88.75
 50  73  415206 GRIGG Eliza  1996  NZL   1:08.68  1:08.28  2:16.96  +11.41  89.06
 51  62  35131 GASTALDI Nicol  1990  ARG   1:08.65  1:08.98  2:17.63  +12.08  94.29
Did not qualify for 2nd run
 52  71  685018 TSIKLAURI Nino  1993  GEO   1:08.77    1:08.77    
 53  77  715123 NOVAKOVIC Zana  1985  BIH   1:08.98    1:08.98    
 54  69  65117 VANREUSEL Kim  1998  BEL   1:09.00    1:09.00    
 55  57  35079 SIMARI BIRKNER Maria Belen  1982  ARG   1:09.26    1:09.26    
 56  52  225572 BROWN Cara  1994  GBR   1:09.85    1:09.85    
 57  56  115115 BARAHONA Noelle  1990  CHI   1:10.07    1:10.07    
 58  78  695108 KNYSH Olha  1995  UKR   1:10.74    1:10.74    
 59  76  197848 ARBEZ Tess  1997  IRL   1:10.86    1:10.86    
 60  80  6000000 SIMADER Sabrina  1998  KEN   1:11.15    1:11.15    
 61  79  175041 LEMGART Charlotte Techen  1993  DEN   1:11.34    1:11.34    
 62  82  785007 JANUSKEVICIUTE Ieva  1994  LTU   1:12.68    1:12.68    
 63  83  235110 RALLI Sophia  1988  GRE   1:12.97    1:12.97    
 64  84  675036 KARPOVA Yekaterina  1998  KAZ   1:13.08    1:13.08    
 65  81  125039 NI Yueming  1995  CHN   1:14.25    1:14.25    
 66  87  959300 PELLEGRIN Elise  1991  MLT   1:15.51    1:15.51    
 67  85  365020 ELVINGER Catherine  1995  LUX   1:15.75    1:15.75    
 68  88  955000 OETTL REYES Ornella  1991  PER   1:16.18    1:16.18    
 69  86  298936 MEHILLI Suela  1994  ALB   1:16.40    1:16.40    
 70  90  215007 GRIGOREVA Kseniya  1987  UZB   1:17.38    1:17.38    
 71  93  345122 EL KHOURY Laetitia  1997  LBN   1:18.41    1:18.41    
 72  89  315219 MILOSEVIC Nadezda  1998  MNE   1:18.93    1:18.93    
 73  91  265006 KALHOR Marjan  1988  IRI   1:21.36    1:21.36    
 74  95  595018 CARVALHO Catarina  1997  POR   1:22.20    1:22.20    
 75  94  775004 PALIUTKINA Olga  1993  KGZ   1:23.48    1:23.48    
 76  97  575010 OLIVIER Rachel Elizabeth  1999  RSA   1:25.90    1:25.90    
 77  96  625023 THAKUR Aanchal  1996  IND   1:26.51    1:26.51    
 78  98  926000 MARTI Celine  1979  HAI   1:43.38    1:43.38    
Did not qualify for final race
 79  33  705469 NEMCOVA Klaudia  2000  SVK   1:03.54  1:01.94  2:05.48    
 80  23  65108 NELLES Mathilde  1997  BEL   1:05.51  1:01.92  2:07.43    
 81  41  255403 BIRKISDOTTIR Andrea Bjork  1998  ISL   1:04.51  1:03.71  2:08.22    
 82  45  175050 BERTHELSEN Nuunu Chemnitz  1996  DEN   1:06.30  1:05.19  2:11.49    
 83  40  675035 GRIGOROVA Mariya  1996  KAZ   1:07.25  1:06.73  2:13.98    
 84  56  275035 CARLETTE Kelsie  1995  IRL   1:09.02  1:06.77  2:15.79    
 85  52  245073 MAROTY Monika  1997  HUN   1:08.27  1:08.07  2:16.34    
 86  29  125038 KONG Fanying  1996  CHN   1:08.82  1:09.21  2:18.03    
 87  38  125037 WANG Meixia  1997  CHN   1:08.85  1:09.28  2:18.13    
 88  64  245078 VAGI Luca  2000  HUN   1:11.01  1:08.26  2:19.27    
 89  67  245072 EIGLER Patricia  1998  HUN   1:12.60  1:09.94  2:22.54    
 90  59  265036 ZALI TOROJENI Najmeh  1995  IRI   1:12.79  1:12.74  2:25.53    
 91  61  235322 TZIOUFA Katerina  1998  GRE   1:13.05  1:13.71  2:26.76    
 92  62  265053 AHMADI Atefeh  2000  IRI   1:16.16  1:13.15  2:29.31    
 93  74  345123 KEIROUZ Lea  1997  LBN   1:14.84  1:16.62  2:31.46    
 94  63  235331 MARMARELLI Fani  1999  GRE   1:17.10  1:17.97  2:35.07    
 95  66  345140 GEORGE Sonia Marie  1999  LBN   1:19.50  1:17.04  2:36.54    
 96  69  345098 KEIROUZ Celine  1995  LBN   1:18.97  1:19.68  2:38.65    
 97  69  625024 DEVI Varsha  1995  IND   1:21.66  1:21.77  2:43.43    
Did not finish 2nd run
   61  665009 SHKANOVA Maria  1989  BLR           
   60  35222 BARUZZI FARRIOL Francesca  1998  ARG           
   58  415205 HUDSON Piera  1996  NZL           
   45  385096 POPOVIC Leona  1997  CRO           
   36  107532 TOMMY Mikaela  1995  CAN           
   35  355061 HILZINGER Jessica  1997  GER           
   28  565373 ROBNIK Tina  1991  SLO           
   18  565360 STUHEC Ilka  1990  SLO           
Did not start 2nd run
   39  107613 GRENIER Valerie  1996  CAN           
Did not finish 1st run
   75  245077 ARCHAM Chiara  1999  HUN           
   50  185411 LUUKKO Nea  1996  FIN           
   49  485926 KRYUKOVA Kristina  1997  RUS           
   44  516394 SUTER Jasmina  1995  SUI           
   43  155728 DUBOVSKA Martina  1992  CZE           
   38  107387 CRAWFORD Candace  1994  CAN           
   34  537772 STIEGLER Resi  1985  USA           
   21  197124 FRASSE SOMBET Coralie  1991  FRA           
   2  205218 REBENSBURG Viktoria  1989  GER           
Disqualified 1st run
   92  755051 SIMJANOVSKA Lidija  2000  MKD           
   24  56315 TRUPPE Katharina  1996  AUT           
Did not finish 2nd run in qualification race
   60  265005 KALHOR Mitra  1985  IRI           
   51  315203 BULATOVIC Ivana  1994  MNE           
Did not finish 1st run in qualification race
   46  695101 TIKUN Tetyana  1994  UKR           
   43  125026 LIU Yang  1988  CHN           
   34  715171 MUZAFERIJA Elvedina  1999  BIH           
Disqualified 1st run in qualification race
   53  235292 SAMARINOU Maria  1996  GRE           
Did not start 1st run in qualification race
   26  405160 TAN Claire  1998  NED